createdAt,value
2019-02-04T00:02:16.563Z,33.50
2019-02-04T00:04:42.797Z,33.50
2019-02-04T00:07:09.206Z,33.50
2019-02-04T00:09:35.646Z,33.50
2019-02-04T00:12:01.878Z,33.40
2019-02-04T00:14:28.071Z,33.50
2019-02-04T00:16:54.382Z,33.60
2019-02-04T00:19:20.776Z,33.30
2019-02-04T00:21:46.994Z,33.30
2019-02-04T00:24:13.472Z,33.30
2019-02-04T00:26:51.072Z,33.40
2019-02-04T00:29:06.095Z,33.50
2019-02-04T00:31:32.308Z,33.60
2019-02-04T00:33:58.543Z,33.30
2019-02-04T00:36:24.773Z,33.20
2019-02-04T00:38:51.823Z,33.90
2019-02-04T00:41:19.688Z,33.20
2019-02-04T00:43:45.904Z,33.20
2019-02-04T00:46:12.392Z,33.40
2019-02-04T00:48:38.783Z,33.30
2019-02-04T00:51:05.007Z,33.40
2019-02-04T00:53:31.239Z,33.30
2019-02-04T00:55:57.469Z,33.40
2019-02-04T00:58:24.501Z,33.30
2019-02-04T01:00:50.733Z,33.30
2019-02-04T01:03:18.627Z,33.60
2019-02-04T01:05:44.904Z,33.50
2019-02-04T01:08:11.281Z,33.50
2019-02-04T01:10:37.495Z,34.10
2019-02-04T01:13:03.769Z,33.60
2019-02-04T01:15:30.173Z,33.60
2019-02-04T01:17:56.373Z,33.50
2019-02-04T01:20:22.608Z,33.60
2019-02-04T01:22:49.031Z,33.50
2019-02-04T01:25:15.255Z,33.50
2019-02-04T01:27:41.501Z,33.50
2019-02-04T01:30:07.717Z,33.50
2019-02-04T01:32:33.948Z,33.50
2019-02-04T01:35:00.272Z,33.50
2019-02-04T01:37:26.610Z,33.50
2019-02-04T01:39:52.832Z,33.60
2019-02-04T01:42:19.270Z,33.50
2019-02-04T01:44:45.889Z,33.60
2019-02-04T01:47:14.540Z,33.60
2019-02-04T01:49:38.574Z,33.70
2019-02-04T01:52:04.811Z,33.60
2019-02-04T01:54:31.034Z,33.60
2019-02-04T01:56:57.300Z,33.70
2019-02-04T01:59:23.684Z,33.60
2019-02-04T02:01:49.923Z,33.50
2019-02-04T02:04:16.132Z,33.60
2019-02-04T02:06:42.382Z,33.50
2019-02-04T02:09:08.609Z,33.50
2019-02-04T02:11:34.827Z,33.50
2019-02-04T02:14:01.064Z,33.50
2019-02-04T02:16:29.182Z,33.70
2019-02-04T02:18:55.580Z,33.60
2019-02-04T02:21:22.013Z,33.50
2019-02-04T02:23:48.226Z,33.60
2019-02-04T02:26:14.471Z,33.60
2019-02-04T02:28:40.876Z,33.60
2019-02-04T02:31:07.369Z,33.60
2019-02-04T02:33:33.751Z,33.60
2019-02-04T02:35:59.976Z,33.60
2019-02-04T02:38:26.213Z,33.50
2019-02-04T02:40:54.079Z,33.50
2019-02-04T02:43:20.295Z,33.50
2019-02-04T02:45:46.533Z,33.50
2019-02-04T02:48:12.747Z,33.50
2019-02-04T02:50:38.998Z,33.50
2019-02-04T02:53:05.227Z,33.60
2019-02-04T02:55:31.431Z,33.60
2019-02-04T02:57:57.672Z,33.60
2019-02-04T03:00:23.902Z,33.60
2019-02-04T03:02:50.130Z,33.60
2019-02-04T03:05:16.348Z,33.60
2019-02-04T03:07:42.591Z,33.60
2019-02-04T03:10:10.473Z,33.80
2019-02-04T03:12:36.913Z,33.70
2019-02-04T03:15:03.351Z,33.80
2019-02-04T03:17:30.559Z,33.70
2019-02-04T03:19:56.852Z,33.70
2019-02-04T03:22:23.234Z,33.80
2019-02-04T03:24:49.457Z,33.80
2019-02-04T03:27:15.696Z,33.70
2019-02-04T03:29:41.922Z,33.80
2019-02-04T03:32:08.356Z,33.70
2019-02-04T03:34:34.795Z,33.70
2019-02-04T03:37:01.033Z,33.60
2019-02-04T03:39:27.239Z,33.70
2019-02-04T03:41:53.479Z,33.60
2019-02-04T03:44:19.685Z,33.90
2019-02-04T03:46:45.922Z,33.90
2019-02-04T03:49:12.169Z,33.70
2019-02-04T03:51:38.639Z,33.70
2019-02-04T03:54:05.032Z,33.70
2019-02-04T03:56:31.258Z,33.80
2019-02-04T03:58:57.481Z,33.80
2019-02-04T04:01:23.683Z,33.90
2019-02-04T04:03:49.911Z,33.90
2019-02-04T04:06:16.155Z,33.80
2019-02-04T04:08:42.384Z,33.80
2019-02-04T04:11:08.648Z,33.80
2019-02-04T04:13:35.048Z,33.80
2019-02-04T04:16:01.264Z,33.80
2019-02-04T04:18:27.508Z,33.90
2019-02-04T04:20:55.201Z,33.90
2019-02-04T04:23:21.587Z,33.90
2019-02-04T04:25:47.874Z,33.80
2019-02-04T04:28:14.247Z,33.70
2019-02-04T04:30:40.484Z,33.70
2019-02-04T04:33:06.709Z,33.80
2019-02-04T04:35:32.932Z,33.70
2019-02-04T04:37:59.166Z,33.90
2019-02-04T04:40:27.033Z,33.90
2019-02-04T04:42:54.933Z,33.90
2019-02-04T04:45:21.316Z,33.90
2019-02-04T04:47:47.824Z,33.80
2019-02-04T04:50:14.212Z,33.80
2019-02-04T04:52:40.627Z,33.80
2019-02-04T04:55:06.887Z,33.80
2019-02-04T04:57:33.289Z,33.70
2019-02-04T04:59:59.513Z,33.60
2019-02-04T05:02:25.807Z,33.60
2019-02-04T05:04:52.181Z,33.60
2019-02-04T05:07:18.677Z,33.60
2019-02-04T05:09:45.061Z,33.60
2019-02-04T05:12:11.283Z,33.60
2019-02-04T05:14:37.453Z,34.30
2019-02-04T05:17:03.739Z,33.60
2019-02-04T05:19:29.967Z,33.60
2019-02-04T05:21:56.444Z,33.60
2019-02-04T05:24:22.878Z,33.60
2019-02-04T05:26:49.263Z,33.60
2019-02-04T05:29:15.462Z,33.60
2019-02-04T05:31:41.744Z,33.60
2019-02-04T05:34:07.937Z,33.60
2019-02-04T05:36:34.175Z,33.60
2019-02-04T05:39:00.382Z,33.60
2019-02-04T05:41:26.612Z,33.60
2019-02-04T05:43:53.064Z,33.60
2019-02-04T05:46:20.362Z,33.60
2019-02-04T05:48:49.455Z,33.60
2019-02-04T05:51:13.173Z,33.60
2019-02-04T05:53:39.424Z,33.50
2019-02-04T05:56:05.640Z,33.50
2019-02-04T05:58:33.101Z,33.50
2019-02-04T06:00:58.306Z,33.50
2019-02-04T06:03:24.740Z,33.50
2019-02-04T06:05:50.970Z,33.50
2019-02-04T06:08:17.160Z,33.50
2019-02-04T06:10:43.423Z,33.50
2019-02-04T06:13:09.639Z,33.50
2019-02-04T06:15:37.547Z,33.50
2019-02-04T06:18:03.967Z,33.50
2019-02-04T06:20:30.183Z,33.50
2019-02-04T06:22:58.022Z,33.50
2019-02-04T06:25:24.285Z,33.40
2019-02-04T06:27:50.687Z,33.70
2019-02-04T06:30:16.920Z,33.40
2019-02-04T06:32:43.141Z,33.40
2019-02-04T06:35:09.386Z,33.40
2019-02-04T06:37:35.608Z,33.40
2019-02-04T06:40:02.060Z,33.40
2019-02-04T06:42:28.492Z,33.40
2019-02-04T06:44:54.686Z,33.40
2019-02-04T06:47:20.922Z,33.30
2019-02-04T06:49:47.148Z,33.40
2019-02-04T06:52:13.458Z,33.30
2019-02-04T06:54:39.808Z,33.30
2019-02-04T06:57:06.060Z,33.40
2019-02-04T06:59:32.483Z,33.30
2019-02-04T07:01:58.723Z,33.30
2019-02-04T07:04:24.919Z,33.30
2019-02-04T07:06:51.158Z,33.30
2019-02-04T07:09:17.440Z,33.30
2019-02-04T07:11:44.079Z,33.30
2019-02-04T07:14:10.487Z,33.20
2019-02-04T07:16:38.339Z,33.20
2019-02-04T07:19:04.757Z,33.30
2019-02-04T07:21:31.041Z,33.10
2019-02-04T07:23:57.412Z,33.20
2019-02-04T07:26:23.688Z,33.20
2019-02-04T07:28:50.090Z,33.10
2019-02-04T07:31:16.310Z,33.10
2019-02-04T07:33:42.539Z,33.10
2019-02-04T07:36:09.208Z,33.10
2019-02-04T07:38:35.608Z,33.10
2019-02-04T07:41:01.821Z,33.10
2019-02-04T07:43:28.051Z,33.10
2019-02-04T07:45:54.233Z,33.10
2019-02-04T07:48:21.343Z,33.10
2019-02-04T07:50:47.542Z,33.10
2019-02-04T07:53:13.836Z,33.10
2019-02-04T07:55:40.246Z,33.00
2019-02-04T07:58:06.679Z,33.10
2019-02-04T08:00:32.889Z,33.00
2019-02-04T08:02:59.114Z,33.00
2019-02-04T08:05:25.343Z,33.00
2019-02-04T08:07:51.562Z,33.00
2019-02-04T08:10:17.835Z,33.00
2019-02-04T08:12:44.288Z,33.10
2019-02-04T08:15:10.719Z,33.00
2019-02-04T08:17:37.132Z,33.00
2019-02-04T08:20:03.780Z,33.10
2019-02-04T08:22:29.974Z,33.00
2019-02-04T08:24:56.198Z,33.00
2019-02-04T08:27:22.420Z,33.00
2019-02-04T08:29:48.655Z,33.00
2019-02-04T08:32:14.869Z,33.00
2019-02-04T08:34:41.129Z,33.00
2019-02-04T08:37:07.536Z,33.00
2019-02-04T08:39:33.743Z,33.00
2019-02-04T08:42:00.003Z,33.00
2019-02-04T08:44:26.229Z,33.00
2019-02-04T08:46:53.271Z,33.00
2019-02-04T08:49:19.503Z,33.00
2019-02-04T08:51:47.396Z,33.00
2019-02-04T08:54:13.823Z,33.00
2019-02-04T08:56:42.859Z,33.00
2019-02-04T08:59:06.667Z,33.00
2019-02-04T09:01:32.887Z,33.00
2019-02-04T09:03:59.126Z,33.10
2019-02-04T09:06:26.096Z,33.10
2019-02-04T09:08:53.232Z,33.10
2019-02-04T09:11:19.431Z,33.00
2019-02-04T09:13:45.660Z,33.00
2019-02-04T09:16:11.915Z,33.00
2019-02-04T09:18:44.846Z,33.00
2019-02-04T09:21:04.766Z,33.00
2019-02-04T09:23:30.989Z,33.00
2019-02-04T09:25:58.860Z,33.00
2019-02-04T09:28:25.098Z,33.00
2019-02-04T09:30:51.382Z,33.20
2019-02-04T09:33:17.760Z,33.20
2019-02-04T09:35:43.984Z,33.20
2019-02-04T09:38:10.414Z,33.20
2019-02-04T09:40:36.646Z,33.20
2019-02-04T09:43:02.854Z,33.20
2019-02-04T09:45:30.722Z,33.00
2019-02-04T09:47:56.954Z,33.00
2019-02-04T09:50:23.188Z,33.10
2019-02-04T09:52:49.548Z,33.30
2019-02-04T09:55:16.120Z,33.30
2019-02-04T09:57:42.542Z,33.20
2019-02-04T10:00:08.910Z,33.30
2019-02-04T10:02:35.163Z,33.20
2019-02-04T10:05:02.247Z,33.30
2019-02-04T10:07:28.634Z,33.30
2019-02-04T10:09:54.867Z,33.20
2019-02-04T10:12:21.313Z,33.20
2019-02-04T10:14:47.718Z,33.20
2019-02-04T10:17:13.963Z,33.20
2019-02-04T10:19:40.404Z,33.20
2019-02-04T10:22:06.624Z,33.90
2019-02-04T10:24:32.865Z,33.20
2019-02-04T10:26:59.083Z,33.30
2019-02-04T10:29:26.944Z,33.30
2019-02-04T10:31:53.535Z,33.20
2019-02-04T10:34:19.828Z,33.30
2019-02-04T10:36:46.255Z,33.30
2019-02-04T10:39:12.507Z,33.30
2019-02-04T10:41:38.908Z,33.30
2019-02-04T10:44:05.343Z,33.30
2019-02-04T10:46:31.783Z,33.30
2019-02-04T10:48:58.038Z,33.30
2019-02-04T10:51:24.508Z,33.30
2019-02-04T10:53:50.897Z,33.30
2019-02-04T10:56:17.351Z,33.30
2019-02-04T10:58:43.741Z,33.30
2019-02-04T11:01:09.955Z,33.20
2019-02-04T11:03:36.405Z,33.20
2019-02-04T11:06:02.834Z,33.40
2019-02-04T11:08:32.718Z,33.40
2019-02-04T11:10:56.302Z,33.40
2019-02-04T11:13:22.760Z,33.40
2019-02-04T11:15:49.178Z,33.40
2019-02-04T11:18:15.409Z,33.40
2019-02-04T11:20:42.092Z,33.30
2019-02-04T11:23:08.536Z,33.40
2019-02-04T11:25:34.937Z,33.40
2019-02-04T11:28:01.357Z,33.40
2019-02-04T11:30:28.175Z,33.40
2019-02-04T11:32:56.043Z,33.30
2019-02-04T11:35:22.469Z,33.30
2019-02-04T11:37:48.904Z,33.40
2019-02-04T11:40:15.431Z,33.40
2019-02-04T11:42:42.593Z,33.50
2019-02-04T11:45:08.813Z,33.50
2019-02-04T11:47:35.252Z,33.40
2019-02-04T11:50:01.691Z,33.20
2019-02-04T11:52:28.135Z,33.20
2019-02-04T11:54:55.169Z,33.40
2019-02-04T11:57:23.027Z,33.60
2019-02-04T11:59:49.272Z,33.60
2019-02-04T12:02:15.700Z,33.50
2019-02-04T12:04:41.912Z,33.50
2019-02-04T12:07:08.132Z,33.30
2019-02-04T12:09:34.373Z,33.50
2019-02-04T12:12:00.799Z,33.40
2019-02-04T12:14:27.080Z,33.20
2019-02-04T12:16:53.482Z,33.40
2019-02-04T12:19:20.131Z,33.10
2019-02-04T12:21:46.539Z,33.20
2019-02-04T12:24:12.763Z,33.00
2019-02-04T12:26:38.944Z,33.30
2019-02-04T12:29:05.213Z,33.40
2019-02-04T12:31:31.455Z,33.30
2019-02-04T12:33:58.343Z,33.40
2019-02-04T12:36:24.719Z,33.40
2019-02-04T12:38:51.004Z,32.90
2019-02-04T12:41:17.393Z,33.20
2019-02-04T12:43:44.003Z,33.50
2019-02-04T12:46:10.282Z,33.10
2019-02-04T12:48:36.680Z,33.20
2019-02-04T12:51:02.922Z,33.20
2019-02-04T12:53:29.979Z,33.30
2019-02-04T12:55:56.394Z,33.30
2019-02-04T12:58:22.635Z,33.40
2019-02-04T13:00:48.840Z,33.20
2019-02-04T13:03:15.077Z,33.30
2019-02-04T13:05:41.281Z,33.00
2019-02-04T13:08:07.531Z,33.10
2019-02-04T13:10:33.757Z,33.20
2019-02-04T13:13:00.715Z,33.00
2019-02-04T13:15:27.036Z,33.10
2019-02-04T13:17:53.261Z,32.90
2019-02-04T13:20:19.514Z,33.20
2019-02-04T13:22:48.828Z,32.90
2019-02-04T13:25:12.386Z,33.30
2019-02-04T13:27:38.776Z,33.10
2019-02-04T13:30:05.018Z,33.20
2019-02-04T13:32:31.253Z,32.90
2019-02-04T13:34:59.092Z,33.00
2019-02-04T13:37:25.349Z,32.90
2019-02-04T13:39:51.769Z,32.80
2019-02-04T13:42:19.647Z,32.90
2019-02-04T13:44:46.073Z,32.80
2019-02-04T13:47:12.305Z,32.90
2019-02-04T13:49:40.003Z,33.00
2019-02-04T13:52:06.192Z,32.90
2019-02-04T13:54:32.420Z,32.80
2019-02-04T13:56:58.618Z,32.20
2019-02-04T13:59:24.869Z,32.70
2019-02-04T14:01:51.055Z,32.90
2019-02-04T14:04:17.275Z,32.60
2019-02-04T14:06:43.463Z,32.90
2019-02-04T14:09:10.424Z,33.10
2019-02-04T14:11:36.644Z,32.90
2019-02-04T14:14:02.874Z,32.80
2019-02-04T14:16:29.133Z,32.70
2019-02-04T14:18:55.304Z,32.80
2019-02-04T14:21:21.523Z,32.70
2019-02-04T14:23:47.716Z,32.70
2019-02-04T14:26:13.918Z,32.30
2019-02-04T14:28:40.869Z,32.40
2019-02-04T14:31:07.073Z,32.40
2019-02-04T14:33:33.265Z,32.60
2019-02-04T14:35:59.475Z,32.70
2019-02-04T14:38:25.673Z,32.80
2019-02-04T14:40:52.850Z,32.60
2019-02-04T14:43:19.034Z,32.60
2019-02-04T14:45:45.234Z,32.60
2019-02-04T14:48:12.191Z,32.20
2019-02-04T14:50:38.448Z,32.20
2019-02-04T14:53:04.639Z,32.60
2019-02-04T14:55:31.031Z,32.60
2019-02-04T14:57:57.281Z,32.50
2019-02-04T15:00:23.537Z,32.50
2019-02-04T15:02:49.727Z,32.50
2019-02-04T15:05:15.949Z,32.30
2019-02-04T15:07:42.174Z,32.30
2019-02-04T15:10:08.373Z,32.20
2019-02-04T15:12:34.585Z,32.40
2019-02-04T15:15:00.827Z,32.20
2019-02-04T15:17:27.027Z,32.20
2019-02-04T15:19:53.212Z,32.00
2019-02-04T15:22:19.428Z,32.20
2019-02-04T15:24:46.588Z,32.50
2019-02-04T15:27:12.799Z,32.40
2019-02-04T15:29:46.285Z,32.50
2019-02-04T15:32:05.254Z,31.80
2019-02-04T15:34:31.446Z,32.40
2019-02-04T15:36:59.173Z,32.20
2019-02-04T15:39:25.365Z,32.30
2019-02-04T15:41:51.572Z,32.30
2019-02-04T15:44:17.749Z,31.80
2019-02-04T15:46:43.990Z,32.00
2019-02-04T15:49:10.209Z,32.20
2019-02-04T15:51:36.459Z,32.10
2019-02-04T15:54:02.665Z,32.20
2019-02-04T15:56:28.872Z,32.10
2019-02-04T15:58:55.842Z,32.10
2019-02-04T16:01:22.028Z,32.10
2019-02-04T16:03:48.205Z,32.10
2019-02-04T16:06:14.480Z,32.10
2019-02-04T16:08:40.629Z,32.20
2019-02-04T16:11:06.875Z,32.10
2019-02-04T16:13:33.127Z,32.00
2019-02-04T16:15:59.341Z,32.00
2019-02-04T16:18:25.574Z,32.10
2019-02-04T16:20:51.881Z,31.80
2019-02-04T16:23:18.080Z,31.80
2019-02-04T16:25:44.273Z,32.00
2019-02-04T16:28:10.520Z,31.70
2019-02-04T16:30:36.739Z,32.00
2019-02-04T16:33:02.974Z,32.10
2019-02-04T16:35:29.154Z,31.90
2019-02-04T16:37:55.478Z,31.80
2019-02-04T16:40:21.655Z,31.90
2019-02-04T16:42:49.342Z,32.10
2019-02-04T16:45:15.540Z,31.90
2019-02-04T16:47:41.723Z,31.90
2019-02-04T16:50:07.948Z,31.90
2019-02-04T16:52:34.151Z,31.80
2019-02-04T16:55:01.120Z,31.80
2019-02-04T16:57:27.302Z,31.80
2019-02-04T16:59:53.478Z,31.90
2019-02-04T17:02:19.665Z,31.20
2019-02-04T17:04:46.651Z,31.80
2019-02-04T17:07:12.829Z,31.80
2019-02-04T17:09:39.072Z,31.50
2019-02-04T17:12:06.747Z,31.60
2019-02-04T17:14:32.976Z,31.60
2019-02-04T17:16:59.259Z,31.50
2019-02-04T17:19:25.480Z,31.30
2019-02-04T17:21:51.676Z,31.10
2019-02-04T17:24:17.887Z,31.20
2019-02-04T17:26:44.113Z,31.40
2019-02-04T17:29:10.383Z,31.30
2019-02-04T17:31:36.605Z,31.50
2019-02-04T17:34:02.977Z,31.00
2019-02-04T17:36:29.173Z,31.20
2019-02-04T17:38:55.432Z,31.20
2019-02-04T17:41:21.616Z,31.30
2019-02-04T17:43:47.804Z,31.30
2019-02-04T17:46:14.008Z,31.00
2019-02-04T17:48:41.011Z,30.80
2019-02-04T17:51:07.223Z,30.80
2019-02-04T17:53:34.528Z,31.20
2019-02-04T17:55:59.670Z,30.90
2019-02-04T17:58:25.856Z,30.90
2019-02-04T18:00:52.076Z,31.10
2019-02-04T18:03:18.379Z,31.10
2019-02-04T18:05:44.597Z,31.10
2019-02-04T18:08:10.840Z,31.10
2019-02-04T18:10:37.073Z,30.80
2019-02-04T18:13:03.260Z,31.20
2019-02-04T18:15:29.447Z,31.10
2019-02-04T18:17:55.628Z,30.90
2019-02-04T18:20:22.601Z,30.90
2019-02-04T18:22:48.840Z,30.90
2019-02-04T18:25:15.198Z,31.10
2019-02-04T18:27:41.385Z,31.20
2019-02-04T18:30:07.651Z,30.70
2019-02-04T18:32:33.864Z,30.90
2019-02-04T18:35:00.091Z,31.10
2019-02-04T18:37:26.324Z,31.10
2019-02-04T18:39:52.522Z,30.80
2019-02-04T18:42:18.725Z,31.00
2019-02-04T18:44:44.971Z,30.90
2019-02-04T18:47:11.309Z,30.90
2019-02-04T18:49:37.388Z,30.70
2019-02-04T18:52:03.576Z,30.80
2019-02-04T18:54:29.785Z,31.00
2019-02-04T18:56:55.986Z,30.80
2019-02-04T18:59:22.168Z,30.80
2019-02-04T19:01:48.422Z,31.00
2019-02-04T19:04:15.737Z,30.70
2019-02-04T19:06:47.847Z,31.00
2019-02-04T19:09:07.071Z,30.90
2019-02-04T19:11:33.325Z,31.00
2019-02-04T19:13:59.631Z,30.90
2019-02-04T19:16:26.032Z,30.70
2019-02-04T19:18:52.240Z,30.50
2019-02-04T19:21:18.461Z,30.90
2019-02-04T19:23:44.676Z,31.00
2019-02-04T19:26:10.860Z,30.80
2019-02-04T19:28:37.079Z,30.60
2019-02-04T19:31:03.307Z,30.50
2019-02-04T19:33:29.515Z,30.80
2019-02-04T19:35:55.704Z,30.60
2019-02-04T19:38:21.909Z,31.00
2019-02-04T19:40:48.123Z,30.90
2019-02-04T19:43:14.948Z,31.00
2019-02-04T19:45:41.150Z,30.90
2019-02-04T19:48:07.359Z,30.80
2019-02-04T19:50:33.634Z,30.80
2019-02-04T19:53:00.065Z,31.00
2019-02-04T19:55:26.264Z,30.90
2019-02-04T19:57:52.456Z,30.80
2019-02-04T20:00:20.582Z,31.00
2019-02-04T20:02:44.888Z,31.50
2019-02-04T20:05:11.075Z,31.00
2019-02-04T20:07:37.259Z,31.00
2019-02-04T20:10:03.661Z,30.90
2019-02-04T20:12:29.864Z,30.90
2019-02-04T20:14:56.405Z,30.80
2019-02-04T20:17:22.571Z,30.90
2019-02-04T20:19:48.799Z,30.90
2019-02-04T20:22:15.047Z,31.00
2019-02-04T20:24:41.248Z,30.80
2019-02-04T20:27:07.440Z,31.00
2019-02-04T20:29:33.656Z,31.00
2019-02-04T20:31:59.847Z,31.10
2019-02-04T20:34:26.065Z,31.00
2019-02-04T20:36:52.295Z,31.00
2019-02-04T20:39:18.515Z,31.00
2019-02-04T20:41:44.710Z,31.00
2019-02-04T20:44:10.955Z,30.80
2019-02-04T20:46:37.223Z,31.00
2019-02-04T20:49:03.427Z,31.00
2019-02-04T20:51:29.619Z,30.90
2019-02-04T20:53:56.611Z,31.60
2019-02-04T20:56:22.796Z,31.00
2019-02-04T20:58:49.000Z,30.90
2019-02-04T21:01:15.197Z,30.90
2019-02-04T21:03:41.425Z,30.90
2019-02-04T21:06:07.627Z,30.90
2019-02-04T21:08:33.951Z,30.80
2019-02-04T21:11:00.385Z,30.80
2019-02-04T21:13:26.571Z,30.90
2019-02-04T21:15:54.284Z,31.00
2019-02-04T21:18:20.647Z,31.00
2019-02-04T21:20:46.845Z,30.90
2019-02-04T21:23:14.800Z,31.20
2019-02-04T21:25:41.051Z,31.20
2019-02-04T21:28:07.260Z,31.10
2019-02-04T21:30:33.474Z,31.10
2019-02-04T21:32:59.675Z,31.10
2019-02-04T21:35:27.543Z,31.20
2019-02-04T21:37:53.731Z,31.30
2019-02-04T21:40:19.955Z,31.20
2019-02-04T21:42:46.190Z,31.30
2019-02-04T21:45:12.385Z,31.30
2019-02-04T21:47:38.659Z,31.40
2019-02-04T21:50:04.859Z,31.30
2019-02-04T21:52:31.063Z,31.20
2019-02-04T21:55:08.073Z,31.50
2019-02-04T21:57:24.282Z,31.40
2019-02-04T21:59:50.499Z,32.10
2019-02-04T22:02:16.724Z,31.60
2019-02-04T22:04:42.899Z,31.60
2019-02-04T22:07:09.736Z,31.70
2019-02-04T22:09:35.761Z,31.60
2019-02-04T22:12:01.955Z,31.60
2019-02-04T22:14:28.251Z,31.60
2019-02-04T22:16:54.467Z,31.50
2019-02-04T22:19:20.670Z,31.50
2019-02-04T22:21:46.870Z,31.70
2019-02-04T22:24:13.323Z,31.50
2019-02-04T22:26:39.417Z,31.60
2019-02-04T22:29:05.631Z,31.70
2019-02-04T22:31:31.862Z,31.10
2019-02-04T22:33:58.114Z,31.70
2019-02-04T22:36:25.095Z,31.80
2019-02-04T22:38:51.283Z,31.70
2019-02-04T22:41:17.475Z,31.80
2019-02-04T22:43:43.712Z,31.80
2019-02-04T22:46:09.903Z,31.80
2019-02-04T22:48:36.861Z,32.00
2019-02-04T22:51:03.043Z,31.90
2019-02-04T22:53:29.224Z,31.90
2019-02-04T22:55:55.410Z,31.90
2019-02-04T22:58:21.591Z,31.90
2019-02-04T23:00:47.789Z,31.90
2019-02-04T23:03:14.022Z,32.00
2019-02-04T23:05:40.474Z,31.90
2019-02-04T23:08:06.692Z,32.00
2019-02-04T23:10:32.990Z,31.90
2019-02-04T23:12:59.148Z,32.10
2019-02-04T23:15:25.587Z,32.10
2019-02-04T23:17:51.787Z,32.10
2019-02-04T23:20:18.310Z,32.20
2019-02-04T23:22:44.560Z,32.20
2019-02-04T23:25:11.522Z,32.20
2019-02-04T23:27:37.728Z,32.20
2019-02-04T23:30:03.932Z,32.20
2019-02-04T23:32:30.110Z,32.30
2019-02-04T23:34:56.317Z,32.40
2019-02-04T23:37:23.864Z,32.40
2019-02-04T23:39:50.038Z,32.40
2019-02-04T23:42:16.199Z,32.40
2019-02-04T23:44:42.387Z,32.40
2019-02-04T23:47:09.008Z,32.40
2019-02-04T23:49:35.234Z,32.50
2019-02-04T23:52:01.408Z,32.60
2019-02-04T23:54:27.600Z,32.60
2019-02-04T23:56:53.805Z,32.70
2019-02-04T23:59:21.102Z,32.80
